Time;durP1;ratioP1;P1;durP2;ratioP2;P2;SDS_P1;SDS_P2;PMS_P1;PMS_P2;Temp;Humidity;BMP_temperature;BMP_pressure;BME280_temperature;BME280_humidity;BME280_pressure;Samples;Min_cycle;Max_cycle;Signal;HPM_P1;HPM_P2
2022/01/11 00:00:21;;;;;;;27.07;17.73;;;;;;;3.65;91.01;103194.00;5051773;28;20199;-73
2022/01/11 00:02:48;;;;;;;26.17;16.93;;;;;;;3.62;91.37;103198.78;5067409;28;20228;-73
2022/01/11 00:05:32;;;;;;;24.00;16.40;;;;;;;3.59;90.94;103198.53;5071861;28;20185;-71
2022/01/11 00:07:58;;;;;;;25.73;16.73;;;;;;;3.61;91.02;103202.09;5060619;28;20625;-71
2022/01/11 00:10:33;;;;;;;26.90;16.97;;;;;;;3.61;90.79;103209.69;5055285;28;20182;-72
2022/01/11 00:13:00;;;;;;;26.10;16.77;;;;;;;3.61;90.86;103208.78;5072203;28;20191;-72
2022/01/11 00:15:27;;;;;;;25.07;16.47;;;;;;;3.62;91.14;103205.50;5070417;28;20188;-72
2022/01/11 00:17:53;;;;;;;25.80;15.87;;;;;;;3.63;90.31;103204.75;5056021;28;20202;-71
2022/01/11 00:20:20;;;;;;;21.73;15.33;;;;;;;3.59;90.54;103202.72;5065443;28;20201;-71
2022/01/11 00:25:36;;;;;;;24.30;16.00;;;;;;;3.60;90.21;103209.56;5057244;28;20200;-71
2022/01/11 00:28:02;;;;;;;24.97;16.10;;;;;;;3.60;90.29;103214.63;5071692;28;20204;-72
2022/01/11 00:30:33;;;;;;;23.83;15.57;;;;;;;3.57;90.04;103220.31;5070354;28;20208;-72
2022/01/11 00:33:01;;;;;;;25.53;16.67;;;;;;;3.53;90.31;103230.94;5071438;28;20214;-71
2022/01/11 00:35:40;;;;;;;24.63;16.13;;;;;;;3.58;90.24;103229.69;5062590;28;20581;-72
2022/01/11 00:38:07;;;;;;;22.23;15.13;;;;;;;3.57;90.47;103237.13;5063823;28;20193;-73
2022/01/11 00:40:33;;;;;;;26.90;17.33;;;;;;;3.53;90.35;103233.47;5059869;28;20246;-73
2022/01/11 00:43:00;;;;;;;25.40;16.83;;;;;;;3.54;90.42;103236.91;5051133;28;20218;-72
2022/01/11 00:45:26;;;;;;;26.40;17.10;;;;;;;3.50;90.90;103240.78;5071021;28;20200;-72
2022/01/11 00:47:53;;;;;;;25.80;17.13;;;;;;;3.47;91.15;103244.72;5071236;28;20254;-72
2022/01/11 00:50:19;;;;;;;28.03;18.00;;;;;;;3.50;91.38;103242.47;5069889;28;20181;-73
2022/01/11 00:52:45;;;;;;;31.57;19.43;;;;;;;3.44;91.42;103249.50;5069758;28;20193;-72
2022/01/11 00:55:11;;;;;;;26.97;17.13;;;;;;;3.48;91.52;103249.91;5064761;28;20549;-72
2022/01/11 00:57:37;;;;;;;31.23;18.47;;;;;;;3.45;92.17;103248.78;5057052;28;20259;-72
2022/01/11 01:00:08;;;;;;;29.07;17.90;;;;;;;3.43;91.83;103253.69;5053835;28;20845;-72
2022/01/11 01:02:34;;;;;;;32.27;18.97;;;;;;;3.50;92.49;103258.50;5056278;28;20251;-71
2022/01/11 01:05:00;;;;;;;29.83;18.90;;;;;;;3.49;92.26;103258.41;5053797;28;20212;-72
2022/01/11 01:07:25;;;;;;;28.60;18.37;;;;;;;3.51;92.41;103260.31;5058850;28;20221;-71
2022/01/11 01:10:06;;;;;;;31.90;18.87;;;;;;;3.44;93.07;103258.00;5053961;28;20190;-72
2022/01/11 01:12:37;;;;;;;30.80;19.47;;;;;;;3.47;93.04;103262.44;5059573;28;20185;-72
2022/01/11 01:15:04;;;;;;;32.80;20.47;;;;;;;3.48;93.25;103269.28;5053639;28;20197;-72
2022/01/11 01:17:30;;;;;;;33.03;20.53;;;;;;;3.45;93.88;103271.56;5052049;28;20202;-72
2022/01/11 01:19:55;;;;;;;32.90;21.10;;;;;;;3.45;94.08;103269.03;5051925;28;20190;-73
2022/01/11 01:22:21;;;;;;;35.73;20.63;;;;;;;3.43;93.82;103271.41;5061451;28;20578;-72
2022/01/11 01:24:47;;;;;;;36.00;20.93;;;;;;;3.41;94.11;103272.03;5064637;28;20557;-73
2022/01/11 01:27:13;;;;;;;35.83;22.13;;;;;;;3.38;94.47;103276.84;5057117;28;20209;-72
2022/01/11 01:29:40;;;;;;;37.00;21.30;;;;;;;3.46;94.58;103280.91;5049442;28;20300;-70
2022/01/11 01:32:07;;;;;;;34.83;21.97;;;;;;;3.44;94.54;103285.84;5065929;28;20253;-72
2022/01/11 01:34:33;;;;;;;36.57;22.43;;;;;;;3.43;95.03;103284.09;5070344;28;20185;-71
2022/01/11 01:36:59;;;;;;;36.40;22.70;;;;;;;3.44;94.96;103287.47;5067041;28;20220;-72
2022/01/11 01:39:25;;;;;;;38.57;22.07;;;;;;;3.45;95.30;103286.75;5065889;28;20189;-72
2022/01/11 01:41:51;;;;;;;33.07;21.03;;;;;;;3.45;95.48;103290.16;5059501;28;20202;-72
2022/01/11 01:44:16;;;;;;;37.73;22.17;;;;;;;3.49;94.84;103281.19;5057436;28;20186;-72
2022/01/11 01:46:42;;;;;;;35.80;22.47;;;;;;;3.49;95.13;103291.31;5060387;28;20200;-72
2022/01/11 01:49:09;;;;;;;36.03;21.83;;;;;;;3.47;95.66;103291.19;5051904;28;20192;-71
2022/01/11 01:51:35;;;;;;;35.30;21.23;;;;;;;3.43;95.69;103293.31;5054746;28;20193;-72
2022/01/11 01:54:01;;;;;;;37.80;22.37;;;;;;;3.41;95.36;103295.69;5058394;28;20229;-71
2022/01/11 01:56:26;;;;;;;37.00;22.90;;;;;;;3.41;96.07;103293.16;5054588;28;20732;-72
2022/01/11 01:58:52;;;;;;;40.17;23.87;;;;;;;3.41;95.67;103294.84;5048792;28;20552;-72
2022/01/11 02:01:20;;;;;;;42.17;23.63;;;;;;;3.40;95.24;103301.53;5054407;28;20236;-71
2022/01/11 02:03:46;;;;;;;38.93;22.20;;;;;;;3.42;95.64;103299.13;5067628;28;20205;-72
2022/01/11 02:06:14;;;;;;;39.43;22.40;;;;;;;3.42;95.38;103305.09;5057118;28;20255;-71
2022/01/11 02:08:42;;;;;;;37.03;22.33;;;;;;;3.44;95.90;103303.56;5065378;28;20181;-72
2022/01/11 02:11:08;;;;;;;42.33;22.67;;;;;;;3.38;96.10;103299.63;5055279;28;20228;-72
2022/01/11 02:13:35;;;;;;;40.80;23.93;;;;;;;3.38;95.29;103302.16;5049738;28;20190;-71
2022/01/11 02:16:04;;;;;;;43.23;24.17;;;;;;;3.39;96.21;103301.38;5053143;28;20222;-72
2022/01/11 02:18:29;;;;;;;43.10;25.53;;;;;;;3.41;96.25;103305.81;5049326;28;20192;-72
2022/01/11 02:21:02;;;;;;;42.23;24.43;;;;;;;3.35;96.12;103312.03;5059604;28;20616;-71
2022/01/11 02:23:32;;;;;;;43.47;25.20;;;;;;;3.36;95.88;103306.19;5049604;28;20777;-72
2022/01/11 02:25:58;;;;;;;44.33;24.70;;;;;;;3.36;95.96;103308.75;5059460;28;20721;-72
2022/01/11 02:28:27;;;;;;;46.03;25.00;;;;;;;3.34;95.85;103307.69;5057333;28;20186;-72
2022/01/11 02:30:55;;;;;;;46.30;25.20;;;;;;;3.37;95.97;103313.03;5053146;28;20277;-72
2022/01/11 02:33:34;;;;;;;44.53;25.63;;;;;;;3.34;96.09;103310.22;5049459;28;20170;-71
2022/01/11 02:36:26;;;;;;;45.57;24.87;;;;;;;3.33;96.05;103303.38;5054604;28;20209;-71
2022/01/11 02:38:54;;;;;;;44.00;24.87;;;;;;;3.29;96.06;103311.47;5078861;28;20242;-72
2022/01/11 02:41:21;;;;;;;48.23;25.83;;;;;;;3.35;95.44;103312.03;5053981;28;20198;-72
2022/01/11 02:43:48;;;;;;;39.33;23.43;;;;;;;3.38;95.29;103315.72;5051702;28;20201;-72
2022/01/11 02:46:16;;;;;;;45.13;24.87;;;;;;;3.38;95.70;103313.19;5054343;28;20214;-72
2022/01/11 02:48:42;;;;;;;40.50;23.23;;;;;;;3.37;95.21;103316.47;5054206;28;20239;-72
2022/01/11 02:51:08;;;;;;;43.20;24.70;;;;;;;3.31;94.95;103315.91;5055018;28;20193;-71
2022/01/11 02:53:42;;;;;;;39.53;23.43;;;;;;;3.36;95.65;103327.31;5053313;28;20179;-71
2022/01/11 02:56:08;;;;;;;42.13;23.03;;;;;;;3.40;95.31;103321.78;5052790;28;20284;-72
2022/01/11 02:58:34;;;;;;;38.23;21.97;;;;;;;3.44;95.63;103323.84;5063881;28;20189;-72
2022/01/11 03:01:00;;;;;;;37.13;22.23;;;;;;;3.40;94.91;103325.97;5061564;28;20185;-72
2022/01/11 03:03:25;;;;;;;37.53;22.10;;;;;;;3.42;94.87;103324.44;5067797;28;20784;-72
2022/01/11 03:05:57;;;;;;;36.43;21.10;;;;;;;3.43;94.28;103328.75;5066779;28;20188;-72
2022/01/11 03:08:25;;;;;;;38.23;22.33;;;;;;;3.41;95.01;103328.63;5070877;28;20195;-72
2022/01/11 03:10:52;;;;;;;37.43;22.67;;;;;;;3.45;94.71;103334.84;5061164;28;20193;-72
2022/01/11 03:13:18;;;;;;;35.27;21.13;;;;;;;3.41;94.55;103333.69;5059633;28;20177;-72
2022/01/11 03:15:45;;;;;;;39.43;22.73;;;;;;;3.38;94.43;103328.38;5041096;28;20214;-72
2022/01/11 03:18:13;;;;;;;34.43;21.13;;;;;;;3.43;94.49;103341.41;5054121;28;20235;-72
2022/01/11 03:20:46;;;;;;;38.10;20.83;;;;;;;3.43;94.15;103331.28;5063290;28;20844;-72
2022/01/11 03:23:14;;;;;;;37.27;20.70;;;;;;;3.42;94.97;103330.41;5070274;28;20228;-72
2022/01/11 03:25:40;;;;;;;36.77;21.83;;;;;;;3.43;95.33;103331.28;5069429;28;20741;-72
2022/01/11 03:28:08;;;;;;;36.87;22.43;;;;;;;3.43;94.43;103324.59;5057506;28;20192;-72
2022/01/11 03:30:34;;;;;;;37.97;21.17;;;;;;;3.43;94.36;103331.28;5056646;28;20303;-72
2022/01/11 03:32:59;;;;;;;37.00;20.47;;;;;;;3.33;94.79;103332.13;5065163;28;20199;-72
2022/01/11 03:35:30;;;;;;;34.43;20.00;;;;;;;3.34;94.79;103338.06;5069407;28;20724;-72
2022/01/11 03:37:56;;;;;;;38.90;21.67;;;;;;;3.37;94.39;103344.31;5063865;28;20229;-71
2022/01/11 03:40:24;;;;;;;36.67;20.93;;;;;;;3.41;94.55;103346.34;5055311;28;20190;-72
2022/01/11 03:42:52;;;;;;;35.40;21.17;;;;;;;3.41;94.25;103345.47;5052912;28;20699;-72
2022/01/11 03:45:21;;;;;;;37.33;20.53;;;;;;;3.43;94.42;103343.94;5059349;28;20220;-72
2022/01/11 03:47:49;;;;;;;32.83;20.17;;;;;;;3.41;95.10;103346.34;5060877;28;20217;-71
2022/01/11 03:50:16;;;;;;;36.67;20.87;;;;;;;3.43;94.87;103354.97;5059969;28;20571;-72
2022/01/11 03:52:43;;;;;;;34.27;19.40;;;;;;;3.43;94.78;103357.50;5053792;28;20793;-71
2022/01/11 03:55:12;;;;;;;37.27;20.27;;;;;;;3.37;95.05;103351.91;5058187;28;20187;-72
2022/01/11 03:57:44;;;;;;;35.10;20.93;;;;;;;3.41;94.83;103350.53;5052347;28;20383;-72
2022/01/11 04:00:16;;;;;;;37.90;21.00;;;;;;;3.36;95.16;103351.78;5054900;28;20186;-71
2022/01/11 04:02:43;;;;;;;37.10;21.40;;;;;;;3.36;94.43;103351.78;5071780;28;20778;-72
2022/01/11 04:05:13;;;;;;;35.50;20.83;;;;;;;3.39;95.16;103347.84;5053198;28;20583;-72
2022/01/11 04:07:40;;;;;;;36.10;21.43;;;;;;;3.40;94.87;103354.69;5053465;28;20205;-72
2022/01/11 04:10:08;;;;;;;35.33;19.43;;;;;;;3.39;94.27;103355.47;5057994;28;20177;-70
2022/01/11 04:12:34;;;;;;;35.70;20.73;;;;;;;3.39;94.68;103354.56;5071333;28;20217;-72
2022/01/11 04:15:00;;;;;;;35.57;19.97;;;;;;;3.40;95.01;103354.69;5053084;28;20181;-70
2022/01/11 04:17:26;;;;;;;36.47;20.33;;;;;;;3.41;94.66;103355.59;5054898;28;20219;-72
2022/01/11 04:19:52;;;;;;;34.73;19.27;;;;;;;3.44;94.48;103354.22;5053958;28;20598;-71
2022/01/11 04:22:19;;;;;;;38.70;21.90;;;;;;;3.35;94.80;103357.59;5053995;28;20209;-72
2022/01/11 04:24:45;;;;;;;36.03;20.07;;;;;;;3.40;94.90;103356.34;5068519;28;20185;-72
2022/01/11 04:27:10;;;;;;;36.57;20.67;;;;;;;3.40;94.60;103363.94;5062613;28;20798;-72
2022/01/11 04:29:37;;;;;;;35.13;19.93;;;;;;;3.37;94.99;103361.13;5055153;28;20189;-71
2022/01/11 04:32:04;;;;;;;34.83;20.93;;;;;;;3.42;94.78;103357.38;5053012;28;20174;-72
2022/01/11 04:34:29;;;;;;;35.27;19.93;;;;;;;3.43;94.78;103357.50;5060842;28;20185;-72
2022/01/11 04:36:55;;;;;;;30.93;18.63;;;;;;;3.42;94.42;103358.28;5059348;28;20915;-71
2022/01/11 04:39:22;;;;;;;36.13;20.17;;;;;;;3.35;94.45;103353.41;5058480;28;20181;-70
2022/01/11 04:41:49;;;;;;;33.10;20.30;;;;;;;3.38;94.47;103361.28;5060271;28;20750;-72
2022/01/11 04:44:15;;;;;;;33.07;19.70;;;;;;;3.36;94.98;103357.72;5058042;28;20646;-72
2022/01/11 04:46:41;;;;;;;34.27;20.43;;;;;;;3.42;94.93;103358.28;5066242;28;20205;-72
2022/01/11 04:49:07;;;;;;;36.53;21.27;;;;;;;3.40;94.69;103357.22;5056745;28;20186;-71
2022/01/11 04:51:33;;;;;;;33.97;19.43;;;;;;;3.42;94.48;103368.41;5055828;28;20227;-72
2022/01/11 04:53:59;;;;;;;33.60;20.03;;;;;;;3.42;94.58;103364.97;5067206;28;20180;-71
2022/01/11 04:56:25;;;;;;;33.20;19.27;;;;;;;3.42;94.48;103363.34;5057267;28;20721;-71
2022/01/11 04:58:50;;;;;;;33.83;20.00;;;;;;;3.43;94.88;103367.63;5052722;28;20193;-71
2022/01/11 05:01:17;;;;;;;33.47;19.60;;;;;;;3.47;94.68;103372.22;5053395;28;20193;-71
2022/01/11 05:03:44;;;;;;;36.27;20.23;;;;;;;3.45;94.82;103372.84;5069693;28;20728;-71
2022/01/11 05:06:10;;;;;;;35.10;20.63;;;;;;;3.49;94.30;103373.22;5056372;28;20213;-72
2022/01/11 05:08:37;;;;;;;36.40;20.57;;;;;;;3.50;94.88;103377.53;5050996;28;20196;-72
2022/01/11 05:11:04;;;;;;;34.43;20.70;;;;;;;3.48;94.32;103376.53;5062893;28;20197;-71
2022/01/11 05:13:31;;;;;;;37.67;20.87;;;;;;;3.48;94.80;103373.09;5055051;28;20201;-72
2022/01/11 05:15:59;;;;;;;37.40;21.13;;;;;;;3.46;94.38;103372.97;5053124;28;20178;-71
2022/01/11 05:18:25;;;;;;;41.07;22.87;;;;;;;3.47;94.61;103372.22;5055874;28;20673;-72
2022/01/11 05:20:50;;;;;;;39.47;21.27;;;;;;;3.49;94.50;103375.75;5057065;28;20186;-72
2022/01/11 05:23:17;;;;;;;42.47;22.30;;;;;;;3.51;95.12;103368.31;5056343;28;20232;-71
2022/01/11 05:25:43;;;;;;;48.83;25.07;;;;;;;3.46;94.85;103372.06;5056964;28;20185;-72
2022/01/11 05:28:09;;;;;;;46.43;23.83;;;;;;;3.48;94.60;103378.16;5057478;28;20202;-72
2022/01/11 05:30:34;;;;;;;50.93;24.40;;;;;;;3.45;94.96;103372.84;5054462;28;20204;-72
2022/01/11 05:32:59;;;;;;;54.47;26.10;;;;;;;3.43;95.05;103379.38;5050566;28;20182;-71
2022/01/11 05:35:25;;;;;;;66.00;35.03;;;;;;;3.48;94.82;103381.59;5052564;28;20193;-72
2022/01/11 05:37:52;;;;;;;54.20;27.37;;;;;;;3.50;94.59;103379.19;5060089;28;20733;-72
2022/01/11 05:40:18;;;;;;;54.50;26.60;;;;;;;3.45;94.46;103381.31;5060117;28;20190;-72
2022/01/11 05:42:45;;;;;;;54.40;26.40;;;;;;;3.43;94.86;103381.91;5051423;28;20201;-72
2022/01/11 05:45:12;;;;;;;60.10;27.40;;;;;;;3.36;94.36;103390.63;5051336;28;20234;-72
2022/01/11 05:47:38;;;;;;;60.93;27.70;;;;;;;3.34;94.39;103386.16;5053964;28;20296;-71
2022/01/11 05:50:07;;;;;;;53.20;26.20;;;;;;;3.32;94.38;103390.22;5056550;28;20185;-72
2022/01/11 05:52:34;;;;;;;58.63;26.93;;;;;;;3.34;95.15;103393.78;5056436;28;21186;-71
2022/01/11 05:55:00;;;;;;;54.93;26.03;;;;;;;3.36;94.90;103395.69;5050320;28;20658;-72
2022/01/11 05:57:26;;;;;;;61.47;27.30;;;;;;;3.32;94.90;103392.75;5065137;28;20220;-72
2022/01/11 05:59:51;;;;;;;58.63;25.63;;;;;;;3.35;95.17;103393.91;5052510;28;20205;-71
2022/01/11 06:02:17;;;;;;;52.50;25.17;;;;;;;3.34;94.95;103396.31;5051195;28;20217;-72
2022/01/11 06:04:42;;;;;;;56.17;27.00;;;;;;;3.36;94.96;103404.94;5058349;28;20544;-72
2022/01/11 06:07:09;;;;;;;54.20;26.13;;;;;;;3.35;95.14;103401.50;5060928;28;20189;-72
2022/01/11 06:09:35;;;;;;;53.90;25.80;;;;;;;3.26;95.06;103403.22;5066398;28;20193;-72
2022/01/11 06:12:00;;;;;;;55.13;25.70;;;;;;;3.35;95.09;103403.16;5049948;28;20212;-72
2022/01/11 06:14:26;;;;;;;57.53;26.20;;;;;;;3.36;94.99;103404.94;5050195;28;20229;-71
2022/01/11 06:16:51;;;;;;;52.20;25.00;;;;;;;3.31;94.68;103406.19;5056567;28;20872;-72
2022/01/11 06:19:17;;;;;;;54.00;24.47;;;;;;;3.35;94.54;103408.22;5051833;28;20198;-71
2022/01/11 06:21:48;;;;;;;56.10;24.80;;;;;;;3.38;95.05;103413.53;5057862;28;20185;-72
2022/01/11 06:24:13;;;;;;;50.07;24.33;;;;;;;3.34;94.72;103414.03;5049673;28;20629;-72
2022/01/11 06:26:39;;;;;;;54.97;25.17;;;;;;;3.38;94.47;103419.50;5064836;28;20209;-71
2022/01/11 06:29:04;;;;;;;50.90;24.30;;;;;;;3.40;94.64;103422.19;5068125;28;20820;-72
2022/01/11 06:31:32;;;;;;;53.73;25.40;;;;;;;3.41;94.49;103414.69;5059463;28;20204;-72
2022/01/11 06:33:58;;;;;;;49.20;24.23;;;;;;;3.36;94.91;103415.94;5061940;28;20546;-72
2022/01/11 06:36:24;;;;;;;48.93;24.47;;;;;;;3.32;94.53;103421.47;5046577;28;20212;-72
2022/01/11 06:38:49;;;;;;;51.83;25.57;;;;;;;3.33;94.84;103419.84;5066690;28;20188;-71
2022/01/11 06:41:22;;;;;;;49.53;25.07;;;;;;;3.31;94.03;103427.28;5055171;28;20193;-71
2022/01/11 06:43:47;;;;;;;55.33;26.00;;;;;;;3.33;94.93;103423.28;5053886;28;20205;-72
2022/01/11 06:46:13;;;;;;;49.00;24.90;;;;;;;3.37;94.61;103425.34;5060403;28;20205;-72
2022/01/11 06:48:39;;;;;;;50.13;24.67;;;;;;;3.36;94.88;103425.19;5064400;28;20685;-72
2022/01/11 06:51:04;;;;;;;54.07;26.17;;;;;;;3.33;94.73;103427.44;5065777;28;20604;-72
2022/01/11 06:53:39;;;;;;;49.50;23.33;;;;;;;3.34;94.82;103429.22;5058646;28;20318;-72
2022/01/11 06:56:04;;;;;;;55.30;24.63;;;;;;;3.28;94.62;103434.63;5051106;28;20292;-72
2022/01/11 06:58:31;;;;;;;50.57;23.20;;;;;;;3.34;94.18;103436.81;5063849;28;20196;-72
2022/01/11 07:00:57;;;;;;;50.50;24.07;;;;;;;3.32;94.19;103435.78;5053267;28;20182;-72
2022/01/11 07:03:22;;;;;;;50.47;24.83;;;;;;;3.32;94.01;103428.19;5057169;28;20243;-72
2022/01/11 07:06:08;;;;;;;48.03;24.23;;;;;;;3.31;94.41;103437.41;5062527;28;20667;-72
2022/01/11 07:08:33;;;;;;;65.60;32.67;;;;;;;3.33;94.45;103430.88;5067566;28;20284;-71
2022/01/11 07:11:00;;;;;;;48.73;25.73;;;;;;;3.36;94.22;103442.91;5060698;28;20185;-72
2022/01/11 07:13:25;;;;;;;52.57;24.40;;;;;;;3.32;94.33;103439.19;5052008;28;20189;-72
2022/01/11 07:15:51;;;;;;;51.00;23.10;;;;;;;3.29;94.00;103438.94;5052083;28;20522;-72
2022/01/11 07:18:19;;;;;;;51.50;25.00;;;;;;;3.20;94.09;103443.16;5050064;28;20181;-71
2022/01/11 07:20:44;;;;;;;46.60;24.30;;;;;;;3.22;94.54;103445.84;5059455;28;20193;-72
2022/01/11 07:23:17;;;;;;;49.33;24.77;;;;;;;3.27;94.39;103453.09;5060177;28;20639;-72
2022/01/11 07:25:43;;;;;;;47.60;23.77;;;;;;;3.30;93.69;103450.84;5058398;28;20192;-72
2022/01/11 07:28:10;;;;;;;43.80;22.60;;;;;;;3.32;94.22;103453.50;5042419;28;20192;-72
2022/01/11 07:30:36;;;;;;;39.67;21.67;;;;;;;3.39;94.10;103463.41;5060425;28;20185;-72
2022/01/11 07:33:02;;;;;;;45.00;23.47;;;;;;;3.33;93.65;103460.34;5063124;28;20544;-71
2022/01/11 07:35:28;;;;;;;44.87;23.33;;;;;;;3.31;94.67;103465.28;5053639;28;20201;-72
2022/01/11 07:37:55;;;;;;;48.87;23.47;;;;;;;3.35;94.42;103467.31;5048598;28;20232;-72
2022/01/11 07:40:20;;;;;;;41.33;21.83;;;;;;;3.32;93.82;103468.69;5049382;28;20537;-72
2022/01/11 07:42:51;;;;;;;46.13;22.67;;;;;;;3.30;94.38;103463.50;5049844;28;20702;-72
2022/01/11 07:45:33;;;;;;;41.23;22.50;;;;;;;3.32;93.80;103469.56;5058751;28;20738;-72
2022/01/11 07:48:00;;;;;;;42.33;22.40;;;;;;;3.29;93.93;103478.53;5057408;28;20205;-72
2022/01/11 07:50:26;;;;;;;40.73;22.00;;;;;;;3.27;94.10;103470.81;5068406;28;20559;-72
2022/01/11 07:52:52;;;;;;;38.50;21.20;;;;;;;3.32;94.12;103464.50;5065487;28;20182;-71
2022/01/11 07:55:19;;;;;;;37.77;20.93;;;;;;;3.39;93.80;103471.91;5056764;28;20655;-72
2022/01/11 07:57:44;;;;;;;40.50;22.53;;;;;;;3.38;93.72;103467.63;5059886;28;20681;-71
2022/01/11 08:00:11;;;;;;;42.67;21.80;;;;;;;3.34;93.91;103472.25;5054283;28;20189;-71
2022/01/11 08:02:42;;;;;;;39.80;21.30;;;;;;;3.37;93.70;103470.91;5057437;28;20260;-72
2022/01/11 08:05:15;;;;;;;41.73;23.37;;;;;;;3.37;93.74;103470.91;5062452;28;20280;-72
2022/01/11 08:07:42;;;;;;;34.90;20.53;;;;;;;3.41;93.89;103467.88;5084728;28;20205;-72
2022/01/11 08:10:18;;;;;;;40.00;20.43;;;;;;;3.42;93.97;103486.50;5054385;28;20551;-72
2022/01/11 08:12:45;;;;;;;38.70;21.63;;;;;;;3.45;94.02;103481.72;5054676;28;20177;-71
2022/01/11 08:15:11;;;;;;;36.63;19.70;;;;;;;3.47;93.48;103483.63;5052902;28;20186;-72
2022/01/11 08:17:36;;;;;;;36.93;19.83;;;;;;;3.48;92.96;103489.56;5061712;28;20235;-72
2022/01/11 08:20:03;;;;;;;37.63;19.63;;;;;;;3.48;93.50;103490.47;5058118;28;20237;-72
2022/01/11 08:22:29;;;;;;;38.70;20.93;;;;;;;3.52;93.57;103481.50;5061635;28;20239;-71
2022/01/11 08:24:55;;;;;;;32.70;19.07;;;;;;;3.51;93.82;103477.19;5053007;28;20264;-71
2022/01/11 08:27:22;;;;;;;37.00;20.40;;;;;;;3.51;93.74;103477.19;5059701;28;20205;-72
2022/01/11 08:29:50;;;;;;;39.97;20.23;;;;;;;3.52;93.57;103478.97;5066974;28;20234;-72
2022/01/11 08:32:16;;;;;;;34.27;18.83;;;;;;;3.56;93.01;103483.56;5068191;28;20177;-72
2022/01/11 08:34:43;;;;;;;34.30;18.53;;;;;;;3.62;93.35;103485.00;5065373;28;20662;-73
2022/01/11 08:37:09;;;;;;;34.63;19.00;;;;;;;3.94;93.48;103477.69;5069246;28;20220;-72
2022/01/11 08:39:36;;;;;;;35.07;18.53;;;;;;;3.89;92.87;103478.94;5058986;28;20277;-72
2022/01/11 08:42:03;;;;;;;36.70;18.50;;;;;;;3.91;92.23;103475.78;5084585;28;20276;-72
2022/01/11 08:44:29;;;;;;;30.77;17.40;;;;;;;3.83;91.63;103486.00;5058214;28;20196;-71
2022/01/11 08:46:56;;;;;;;33.53;18.83;;;;;;;3.82;91.73;103485.13;5041500;28;20689;-71
2022/01/11 08:49:28;;;;;;;35.00;19.07;;;;;;;3.79;92.15;103482.34;5059922;28;20710;-71
2022/01/11 08:51:54;;;;;;;34.60;18.83;;;;;;;3.91;91.80;103483.38;5062841;28;20193;-71
2022/01/11 08:54:24;;;;;;;34.60;18.57;;;;;;;3.83;91.66;103488.56;5068199;28;20284;-71
2022/01/11 08:56:54;;;;;;;32.80;19.10;;;;;;;3.81;92.20;103487.50;5064012;28;20255;-71
2022/01/11 08:59:21;;;;;;;31.67;18.80;;;;;;;3.96;91.79;103486.34;5060273;28;20190;-71
2022/01/11 09:01:46;;;;;;;28.60;17.93;;;;;;;3.93;91.39;103483.53;5055288;28;20185;-71
2022/01/11 09:04:13;;;;;;;33.87;18.30;;;;;;;3.97;91.24;103485.59;5062989;28;20300;-72
2022/01/11 09:06:57;;;;;;;32.43;18.73;;;;;;;3.97;91.30;103481.41;5067197;28;20673;-72
2022/01/11 09:09:24;;;;;;;32.60;17.93;;;;;;;3.90;91.04;103488.31;5040882;28;20208;-72
2022/01/11 09:11:51;;;;;;;35.90;18.20;;;;;;;4.02;90.63;103491.94;5053338;28;20650;-71
2022/01/11 09:14:18;;;;;;;35.53;18.27;;;;;;;4.15;90.71;103487.19;5057876;28;20201;-71
2022/01/11 09:16:44;;;;;;;32.40;19.17;;;;;;;4.13;90.35;103487.06;5064057;28;20678;-72
2022/01/11 09:19:12;;;;;;;33.00;17.97;;;;;;;4.13;89.76;103489.59;5064605;28;20208;-71
2022/01/11 09:21:37;;;;;;;32.13;17.40;;;;;;;4.17;89.29;103493.28;5058169;28;20189;-72
2022/01/11 09:24:03;;;;;;;30.97;16.73;;;;;;;4.40;89.24;103498.69;5057086;28;20239;-73
2022/01/11 09:26:32;;;;;;;26.70;15.77;;;;;;;4.45;88.66;103498.34;5060750;28;20288;-72
2022/01/11 09:28:58;;;;;;;31.03;17.00;;;;;;;4.41;87.88;103500.47;5061480;28;20272;-72
2022/01/11 09:31:24;;;;;;;27.77;15.43;;;;;;;4.73;86.66;103499.03;5071762;28;20465;-73
2022/01/11 09:33:52;;;;;;;24.30;14.10;;;;;;;4.56;85.81;103499.28;5062992;28;20184;-72
2022/01/11 09:36:18;;;;;;;24.13;12.67;;;;;;;4.58;85.42;103502.81;5055091;28;20210;-71
2022/01/11 09:38:44;;;;;;;22.47;11.80;;;;;;;4.45;84.97;103511.03;5067250;28;20196;-71
2022/01/11 09:41:09;;;;;;;21.63;11.17;;;;;;;4.62;83.76;103507.41;5061243;28;20663;-72
2022/01/11 09:43:37;;;;;;;23.73;11.40;;;;;;;4.67;82.92;103509.59;5064640;28;20243;-72
2022/01/11 09:46:05;;;;;;;22.47;11.30;;;;;;;4.77;84.65;103509.59;5056644;28;20229;-72
2022/01/11 09:48:32;;;;;;;22.17;11.17;;;;;;;4.53;83.70;103515.13;5062997;28;20299;-70
2022/01/11 09:50:58;;;;;;;20.00;11.37;;;;;;;4.60;84.86;103509.81;5060207;28;20185;-72
2022/01/11 09:53:25;;;;;;;22.57;11.67;;;;;;;4.56;84.28;103509.44;5055867;28;20902;-72
2022/01/11 09:55:51;;;;;;;22.40;11.43;;;;;;;4.66;84.13;103504.38;5055013;28;20193;-71
2022/01/11 09:58:20;;;;;;;21.10;10.97;;;;;;;4.78;83.56;103507.97;5055779;28;20220;-72
2022/01/11 10:00:49;;;;;;;19.07;11.10;;;;;;;4.81;82.69;103505.66;5054059;28;20203;-71
2022/01/11 10:03:59;;;;;;;20.27;11.03;;;;;;;4.97;81.45;103507.09;5058941;28;20580;-72
2022/01/11 10:06:54;;;;;;;21.90;11.20;;;;;;;5.14;80.61;103496.72;5034893;28;20213;-72
2022/01/11 10:09:21;;;;;;;22.77;10.57;;;;;;;4.91;81.49;103501.50;5058832;28;20192;-71
2022/01/11 10:11:50;;;;;;;17.10;10.00;;;;;;;4.81;81.88;103509.13;5051929;28;20201;-71
2022/01/11 10:14:32;;;;;;;19.00;11.43;;;;;;;4.40;83.82;103513.91;5051010;28;20185;-71
2022/01/11 10:17:05;;;;;;;22.47;10.97;;;;;;;4.56;84.12;103510.28;5065667;28;20213;-71
2022/01/11 10:19:31;;;;;;;20.93;11.60;;;;;;;4.27;85.18;103506.91;5066865;28;20206;-71
2022/01/11 10:21:57;;;;;;;23.30;12.85;;;;;;;4.52;84.93;103502.31;5065546;28;20653;-72
2022/01/11 10:24:32;;;;;;;21.27;12.00;;;;;;;4.75;83.53;103508.56;5054141;28;20542;-72
2022/01/11 10:27:10;;;;;;;21.70;11.90;;;;;;;5.67;80.65;103496.06;5056268;28;20342;-72
2022/01/11 10:29:40;;;;;;;20.10;11.83;;;;;;;5.76;78.43;103487.50;5056141;28;20193;-72
2022/01/11 10:32:12;;;;;;;19.47;11.13;;;;;;;7.17;75.10;103486.06;5062702;28;20180;-72
2022/01/11 10:34:38;;;;;;;20.70;10.13;;;;;;;7.22;72.81;103481.31;5060624;28;20661;-72
2022/01/11 10:37:06;;;;;;;18.00;10.80;;;;;;;6.57;74.02;103486.47;5053411;28;20229;-73
2022/01/11 10:39:39;;;;;;;18.50;11.83;;;;;;;5.19;78.48;103494.53;5058499;28;20193;-72
2022/01/11 10:42:25;;;;;;;22.07;12.50;;;;;;;5.09;80.79;103492.00;5066487;28;20204;-72
2022/01/11 10:44:52;;;;;;;21.03;12.27;;;;;;;5.05;80.96;103503.56;5065308;28;20275;-74
2022/01/11 10:47:46;;;;;;;23.83;12.63;;;;;;;4.96;81.35;103497.72;5058161;28;20274;-73
2022/01/11 10:50:27;;;;;;;24.53;13.00;;;;;;;5.12;81.87;103490.63;5054431;28;20197;-72
2022/01/11 10:52:58;;;;;;;20.33;12.20;;;;;;;5.02;82.55;103503.28;5054209;28;20566;-73
2022/01/11 10:55:29;;;;;;;23.93;12.43;;;;;;;5.22;80.76;103494.81;5049027;28;20192;-73
2022/01/11 10:57:58;;;;;;;23.43;13.60;;;;;;;5.22;81.32;103484.66;5053426;28;20209;-73
2022/01/11 11:00:38;;;;;;;23.00;12.17;;;;;;;5.29;81.01;103482.75;5059832;28;20190;-72
2022/01/11 11:03:16;;;;;;;25.47;12.87;;;;;;;5.22;81.99;103487.19;5054704;28;20216;-72
2022/01/11 11:05:59;;;;;;;21.50;12.90;;;;;;;5.32;81.83;103489.72;5060028;28;20616;-72
2022/01/11 11:08:35;;;;;;;20.80;12.00;;;;;;;5.10;80.88;103502.28;5067216;28;20637;-72
2022/01/11 11:11:15;;;;;;;24.07;13.53;;;;;;;4.83;83.09;103499.97;5053601;28;20177;-73
2022/01/11 11:13:45;;;;;;;25.47;12.63;;;;;;;4.76;83.37;103499.31;5058226;28;20181;-73
2022/01/11 11:16:20;;;;;;;24.07;13.67;;;;;;;4.72;83.83;103500.72;5054732;28;20541;-72
2022/01/11 11:18:53;;;;;;;19.13;12.20;;;;;;;4.72;82.73;103497.28;5065948;28;20196;-73
2022/01/11 11:21:31;;;;;;;21.83;11.93;;;;;;;4.85;82.88;103492.47;5053738;28;20215;-72
2022/01/11 11:24:00;;;;;;;21.80;11.70;;;;;;;5.16;82.24;103496.84;5052375;28;20582;-72